createdAt,value
2023-03-10T00:01:31.354Z,72.81
2023-03-10T00:04:17.124Z,73.01
2023-03-10T00:06:47.018Z,73.22
2023-03-10T00:09:15.504Z,73.23
2023-03-10T00:12:02.504Z,73.44
2023-03-10T00:14:53.651Z,73.66
2023-03-10T00:17:37.140Z,73.88
2023-03-10T00:20:12.764Z,73.90
2023-03-10T00:22:49.912Z,74.19
2023-03-10T00:25:21.048Z,74.18
2023-03-10T00:27:52.813Z,74.39
2023-03-10T00:30:24.687Z,74.18
2023-03-10T00:32:54.207Z,73.92
2023-03-10T00:35:22.929Z,73.84
2023-03-10T00:37:53.302Z,73.57
2023-03-10T00:40:23.025Z,73.58
2023-03-10T00:43:00.612Z,73.58
2023-03-10T00:45:29.208Z,73.42
2023-03-10T00:48:00.534Z,73.09
2023-03-10T00:50:29.133Z,72.76
2023-03-10T00:53:02.247Z,72.66
2023-03-10T00:55:30.720Z,72.49
2023-03-10T00:57:59.134Z,72.36
2023-03-10T01:00:28.105Z,72.26
2023-03-10T01:02:56.899Z,72.14
2023-03-10T01:05:29.374Z,71.76
2023-03-10T01:07:57.760Z,71.71
2023-03-10T01:10:27.368Z,71.65
2023-03-10T01:12:55.956Z,71.81
2023-03-10T01:15:25.242Z,71.61
2023-03-10T01:17:53.610Z,71.50
2023-03-10T01:20:22.505Z,71.27
2023-03-10T01:22:50.781Z,71.06
2023-03-10T01:25:19.295Z,71.16
2023-03-10T01:27:47.955Z,70.99
2023-03-10T01:30:16.270Z,71.27
2023-03-10T01:32:46.523Z,71.45
2023-03-10T01:35:15.758Z,71.67
2023-03-10T01:37:45.059Z,71.81
2023-03-10T01:40:16.720Z,72.03
2023-03-10T01:42:46.192Z,72.24
2023-03-10T01:45:14.509Z,72.37
2023-03-10T01:47:43.398Z,72.22
2023-03-10T01:50:14.229Z,72.01
2023-03-10T01:52:44.105Z,71.97
2023-03-10T01:55:13.152Z,72.12
2023-03-10T01:57:44.495Z,72.07
2023-03-10T02:00:16.471Z,72.19
2023-03-10T02:02:59.383Z,72.59
2023-03-10T02:05:28.179Z,72.63
2023-03-10T02:07:56.866Z,72.63
2023-03-10T02:10:26.070Z,72.65
2023-03-10T02:12:54.442Z,72.48
2023-03-10T02:15:23.341Z,72.34
2023-03-10T02:17:52.363Z,72.30
2023-03-10T02:20:34.539Z,71.91
2023-03-10T02:23:02.925Z,71.71
2023-03-10T02:25:37.356Z,71.79
2023-03-10T02:28:05.729Z,71.68
2023-03-10T02:30:37.530Z,71.57
2023-03-10T02:33:10.130Z,71.69
2023-03-10T02:35:39.392Z,71.85
2023-03-10T02:38:11.033Z,72.21
2023-03-10T02:40:48.223Z,72.23
2023-03-10T02:43:32.484Z,72.14
2023-03-10T02:46:06.932Z,72.40
2023-03-10T02:48:37.799Z,72.34
2023-03-10T02:51:22.331Z,72.11
2023-03-10T02:53:50.604Z,72.28
2023-03-10T02:56:19.233Z,72.03
2023-03-10T02:58:48.352Z,72.20
2023-03-10T03:01:19.174Z,72.07
2023-03-10T03:03:47.716Z,72.02
2023-03-10T03:06:16.363Z,72.05
2023-03-10T03:08:45.769Z,71.92
2023-03-10T03:11:16.644Z,71.95
2023-03-10T03:13:45.741Z,72.08
2023-03-10T03:16:14.846Z,72.04
2023-03-10T03:18:43.802Z,71.75
2023-03-10T03:21:17.602Z,71.78
2023-03-10T03:23:47.166Z,71.78
2023-03-10T03:26:19.421Z,71.73
2023-03-10T03:28:49.649Z,71.76
2023-03-10T03:31:24.080Z,71.74
2023-03-10T03:34:01.352Z,71.72
2023-03-10T03:36:30.851Z,71.67
2023-03-10T03:38:59.344Z,71.57
2023-03-10T03:41:30.491Z,71.57
2023-03-10T03:43:59.149Z,71.29
2023-03-10T03:46:29.500Z,71.18
2023-03-10T03:49:00.420Z,71.18
2023-03-10T03:51:31.458Z,71.03
2023-03-10T03:54:00.761Z,70.88
2023-03-10T03:56:29.964Z,70.90
2023-03-10T03:58:58.650Z,70.61
2023-03-10T04:01:27.545Z,70.52
2023-03-10T04:03:56.998Z,70.22
2023-03-10T04:06:25.855Z,70.02
2023-03-10T04:08:54.631Z,70.09
2023-03-10T04:11:24.361Z,70.08
2023-03-10T04:13:52.634Z,69.84
2023-03-10T04:16:21.430Z,69.49
2023-03-10T04:18:50.209Z,69.41
2023-03-10T04:21:18.993Z,69.44
2023-03-10T04:23:48.405Z,69.30
2023-03-10T04:26:20.672Z,69.27
2023-03-10T04:28:50.177Z,69.10
2023-03-10T04:31:20.564Z,69.01
2023-03-10T04:33:50.642Z,68.95
2023-03-10T04:36:20.421Z,68.91
2023-03-10T04:38:53.332Z,68.84
2023-03-10T04:41:24.703Z,68.81
2023-03-10T04:43:56.107Z,68.82
2023-03-10T04:46:24.908Z,68.64
2023-03-10T04:48:56.194Z,68.76
2023-03-10T04:51:24.769Z,68.47
2023-03-10T04:53:54.373Z,67.99
2023-03-10T04:56:22.769Z,67.43
2023-03-10T04:58:53.494Z,67.16
2023-03-10T05:01:43.969Z,67.07
2023-03-10T05:04:26.509Z,66.92
2023-03-10T05:06:55.290Z,66.94
2023-03-10T05:09:30.850Z,66.57
2023-03-10T05:12:21.437Z,66.33
2023-03-10T05:14:59.374Z,66.26
2023-03-10T05:17:28.878Z,66.40
2023-03-10T05:20:00.300Z,66.35
2023-03-10T05:22:30.949Z,66.14
2023-03-10T05:25:11.202Z,65.82
2023-03-10T05:27:41.114Z,65.64
2023-03-10T05:30:11.782Z,65.48
2023-03-10T05:32:40.258Z,65.49
2023-03-10T05:35:09.830Z,65.46
2023-03-10T05:37:42.289Z,65.56
2023-03-10T05:40:16.646Z,65.45
2023-03-10T05:42:45.045Z,65.05
2023-03-10T05:45:14.045Z,64.76
2023-03-10T05:47:48.480Z,64.69
2023-03-10T05:50:18.463Z,64.74
2023-03-10T05:52:50.423Z,64.93
2023-03-10T05:55:20.480Z,64.52
2023-03-10T05:57:49.123Z,64.11
2023-03-10T06:00:21.136Z,63.40
2023-03-10T06:02:56.204Z,63.68
2023-03-10T06:05:27.687Z,63.60
2023-03-10T06:07:56.174Z,63.66
2023-03-10T06:10:24.653Z,63.41
2023-03-10T06:12:56.722Z,63.36
2023-03-10T06:15:27.049Z,63.38
2023-03-10T06:17:55.273Z,62.75
2023-03-10T06:20:25.552Z,62.48
2023-03-10T06:22:54.752Z,62.35
2023-03-10T06:25:24.004Z,62.38
2023-03-10T06:27:52.236Z,62.50
2023-03-10T06:30:21.652Z,62.46
2023-03-10T06:32:51.269Z,62.34
2023-03-10T06:35:20.165Z,62.42
2023-03-10T06:37:56.520Z,62.07
2023-03-10T06:40:24.996Z,61.70
2023-03-10T06:42:53.387Z,61.49
2023-03-10T06:45:22.476Z,61.13
2023-03-10T06:47:50.821Z,60.95
2023-03-10T06:50:19.586Z,60.75
2023-03-10T06:52:52.743Z,60.48
2023-03-10T06:55:21.025Z,60.31
2023-03-10T06:57:49.402Z,60.13
2023-03-10T07:00:18.552Z,60.01
2023-03-10T07:02:47.286Z,59.76
2023-03-10T07:05:15.466Z,59.48
2023-03-10T07:07:44.020Z,59.46
2023-03-10T07:10:17.148Z,59.33
2023-03-10T07:12:46.149Z,59.35
2023-03-10T07:15:16.253Z,58.85
2023-03-10T07:17:47.264Z,58.66
2023-03-10T07:20:15.578Z,58.63
2023-03-10T07:22:44.735Z,58.19
2023-03-10T07:25:13.674Z,58.15
2023-03-10T07:27:42.049Z,57.86
2023-03-10T07:30:11.746Z,57.85
2023-03-10T07:32:40.485Z,57.79
2023-03-10T07:35:09.242Z,57.20
2023-03-10T07:37:39.401Z,57.23
2023-03-10T07:40:08.894Z,57.09
2023-03-10T07:42:37.149Z,56.90
2023-03-10T07:45:06.640Z,56.78
2023-03-10T07:47:35.019Z,56.78
2023-03-10T07:50:03.529Z,56.87
2023-03-10T07:52:33.147Z,57.26
2023-03-10T07:55:01.817Z,57.21
2023-03-10T07:57:30.276Z,56.92
2023-03-10T07:59:58.690Z,56.73
2023-03-10T08:02:27.076Z,56.61
2023-03-10T08:04:55.852Z,56.45
2023-03-10T08:07:32.189Z,56.05
2023-03-10T08:10:00.525Z,55.85
2023-03-10T08:12:29.807Z,55.77
2023-03-10T08:14:58.699Z,55.74
2023-03-10T08:17:31.190Z,55.55
2023-03-10T08:20:00.136Z,55.17
2023-03-10T08:22:28.563Z,54.78
2023-03-10T08:24:57.057Z,54.64
2023-03-10T08:27:28.878Z,54.40
2023-03-10T08:30:00.555Z,54.17
2023-03-10T08:32:29.154Z,53.80
2023-03-10T08:34:57.626Z,53.57
2023-03-10T08:37:26.108Z,53.03
2023-03-10T08:39:56.845Z,52.81
2023-03-10T08:42:27.198Z,52.57
2023-03-10T08:44:56.393Z,52.28
2023-03-10T08:47:28.839Z,52.01
2023-03-10T08:49:58.978Z,52.35
2023-03-10T08:52:27.574Z,52.19
2023-03-10T08:54:59.460Z,51.58
2023-03-10T08:57:28.223Z,51.70
2023-03-10T08:59:56.710Z,51.91
2023-03-10T09:02:25.701Z,51.68
2023-03-10T09:04:54.296Z,51.59
2023-03-10T09:07:22.674Z,51.65
2023-03-10T09:09:51.653Z,51.69
2023-03-10T09:12:20.810Z,51.70
2023-03-10T09:14:49.360Z,51.92
2023-03-10T09:17:18.466Z,51.99
2023-03-10T09:19:47.224Z,51.70
2023-03-10T09:22:15.606Z,51.33
2023-03-10T09:24:44.598Z,50.90
2023-03-10T09:27:12.907Z,51.00
2023-03-10T09:29:43.391Z,51.24
2023-03-10T09:32:12.585Z,51.82
2023-03-10T09:34:41.225Z,51.54
2023-03-10T09:37:15.443Z,51.40
2023-03-10T09:39:44.619Z,51.34
2023-03-10T09:42:38.272Z,51.57
2023-03-10T09:45:24.291Z,51.55
2023-03-10T09:48:34.065Z,52.02
2023-03-10T09:51:06.118Z,51.79
2023-03-10T09:53:54.472Z,51.39
2023-03-10T09:56:30.014Z,51.16
2023-03-10T09:59:11.570Z,51.20
2023-03-10T10:01:44.602Z,50.56
2023-03-10T10:04:18.690Z,50.06
2023-03-10T10:06:48.824Z,50.28
2023-03-10T10:09:36.055Z,49.97
2023-03-10T10:12:14.254Z,49.54
2023-03-10T10:14:55.016Z,49.41
2023-03-10T10:17:55.058Z,49.55
2023-03-10T10:20:42.630Z,49.69
2023-03-10T10:23:24.487Z,49.72
2023-03-10T10:25:53.610Z,50.11
2023-03-10T10:28:43.988Z,50.31
2023-03-10T10:31:17.723Z,49.98
2023-03-10T10:33:57.046Z,50.10
2023-03-10T10:36:30.413Z,50.37
2023-03-10T10:38:59.538Z,50.12
2023-03-10T10:41:30.158Z,50.49
2023-03-10T10:44:07.124Z,50.61
2023-03-10T10:46:37.362Z,50.50
2023-03-10T10:49:26.322Z,50.08
2023-03-10T10:52:06.105Z,49.80
2023-03-10T10:54:39.379Z,49.50
2023-03-10T10:57:19.631Z,49.07
2023-03-10T10:59:48.626Z,48.73
2023-03-10T11:02:24.516Z,48.62
2023-03-10T11:04:53.132Z,48.55
2023-03-10T11:07:26.058Z,48.45
2023-03-10T11:10:00.102Z,48.30
2023-03-10T11:12:34.457Z,48.26
2023-03-10T11:15:25.953Z,48.29
2023-03-10T11:18:13.366Z,47.97
2023-03-10T11:20:51.966Z,48.00
2023-03-10T11:23:30.055Z,48.11
2023-03-10T11:26:01.957Z,48.23
2023-03-10T11:28:40.165Z,48.07
2023-03-10T11:31:33.698Z,47.81
2023-03-10T11:34:04.181Z,47.42
2023-03-10T11:36:57.457Z,47.27
2023-03-10T11:39:48.730Z,46.87
2023-03-10T11:42:35.467Z,46.59
2023-03-10T11:45:22.253Z,46.55
2023-03-10T11:47:56.435Z,46.55
2023-03-10T11:50:39.800Z,46.49
2023-03-10T11:53:17.973Z,46.52
2023-03-10T11:55:47.120Z,46.43
2023-03-10T11:58:22.577Z,46.46
2023-03-10T12:00:54.024Z,46.46
2023-03-10T12:03:41.501Z,46.55
2023-03-10T12:06:13.848Z,46.29
2023-03-10T12:08:42.213Z,46.46
2023-03-10T12:11:19.422Z,46.60
2023-03-10T12:13:50.424Z,46.66
2023-03-10T12:16:22.969Z,46.87
2023-03-10T12:18:54.771Z,46.75
2023-03-10T12:21:28.818Z,46.63
2023-03-10T12:24:01.744Z,47.05
2023-03-10T12:27:00.785Z,47.27
2023-03-10T12:29:34.075Z,47.46
2023-03-10T12:32:02.446Z,47.49
2023-03-10T12:34:33.930Z,47.50
2023-03-10T12:37:09.248Z,47.61
2023-03-10T12:39:43.719Z,47.34
2023-03-10T12:42:31.714Z,47.65
2023-03-10T12:45:03.159Z,47.56
2023-03-10T12:47:35.022Z,47.38
2023-03-10T12:50:08.523Z,47.46
2023-03-10T12:53:01.100Z,47.42
2023-03-10T12:55:31.812Z,47.59
2023-03-10T12:58:22.858Z,47.81
2023-03-10T13:01:02.154Z,47.64
2023-03-10T13:03:54.660Z,47.55
2023-03-10T13:06:46.688Z,47.52
2023-03-10T13:09:27.635Z,47.37
2023-03-10T13:12:30.457Z,46.90
2023-03-10T13:15:31.661Z,46.93
2023-03-10T13:18:31.872Z,46.56
2023-03-10T13:21:11.009Z,46.34
2023-03-10T13:23:49.514Z,46.08
2023-03-10T13:26:29.596Z,46.29
2023-03-10T13:29:32.819Z,46.51
2023-03-10T13:32:08.917Z,46.73
2023-03-10T13:35:04.329Z,47.12
2023-03-10T13:37:47.908Z,47.40
2023-03-10T13:40:46.496Z,47.74
2023-03-10T13:44:05.093Z,48.04
2023-03-10T13:47:00.160Z,48.38
2023-03-10T13:49:41.489Z,48.77
2023-03-10T13:52:39.951Z,48.89
2023-03-10T13:55:42.842Z,49.21
2023-03-10T13:58:28.518Z,49.48
2023-03-10T14:01:09.852Z,49.33
2023-03-10T14:04:02.539Z,49.37
2023-03-10T14:06:51.135Z,49.27
2023-03-10T14:09:29.123Z,49.49
2023-03-10T14:12:06.706Z,49.45
2023-03-10T14:14:51.974Z,49.32
2023-03-10T14:17:48.428Z,49.24
2023-03-10T14:21:23.157Z,49.64
2023-03-10T14:23:52.160Z,49.84
2023-03-10T14:26:20.439Z,50.00
2023-03-10T14:28:49.118Z,50.02
2023-03-10T14:31:21.567Z,50.10
2023-03-10T14:33:50.713Z,50.27
2023-03-10T14:36:19.551Z,50.55
2023-03-10T14:38:56.781Z,50.67
2023-03-10T14:41:29.047Z,50.92
2023-03-10T14:43:58.669Z,51.04
2023-03-10T14:46:27.965Z,51.17
2023-03-10T14:48:56.544Z,51.32
2023-03-10T14:51:35.161Z,51.45
2023-03-10T14:54:04.680Z,51.53
2023-03-10T14:56:34.389Z,51.77
2023-03-10T14:59:03.280Z,51.61
2023-03-10T15:01:31.572Z,51.50
2023-03-10T15:04:16.139Z,51.11
2023-03-10T15:06:44.711Z,50.73
2023-03-10T15:09:13.392Z,49.85
2023-03-10T15:11:42.082Z,49.26
2023-03-10T15:14:23.289Z,48.66
2023-03-10T15:17:03.317Z,47.89
2023-03-10T15:19:55.110Z,47.16
2023-03-10T15:22:23.432Z,46.60
2023-03-10T15:24:51.722Z,46.15
2023-03-10T15:27:20.086Z,45.73
2023-03-10T15:29:50.627Z,45.45
2023-03-10T15:32:19.219Z,45.33
2023-03-10T15:34:47.587Z,45.34
2023-03-10T15:37:15.831Z,45.33
2023-03-10T15:39:44.225Z,45.46
2023-03-10T15:42:14.266Z,45.89
2023-03-10T15:44:42.856Z,46.46
2023-03-10T15:47:13.268Z,47.11
2023-03-10T15:49:42.586Z,47.89
2023-03-10T15:52:11.888Z,48.53
2023-03-10T15:54:41.128Z,49.22
2023-03-10T15:57:09.889Z,49.97
2023-03-10T15:59:38.576Z,50.56
2023-03-10T16:02:07.119Z,51.20
2023-03-10T16:04:36.825Z,51.72
2023-03-10T16:07:07.501Z,52.37
2023-03-10T16:09:36.189Z,52.90
2023-03-10T16:12:06.245Z,53.28
2023-03-10T16:14:38.686Z,53.78
2023-03-10T16:17:08.414Z,54.19
2023-03-10T16:19:36.773Z,54.58
2023-03-10T16:22:07.718Z,55.19
2023-03-10T16:24:36.504Z,55.57
2023-03-10T16:27:04.885Z,56.27
2023-03-10T16:29:33.778Z,57.94
2023-03-10T16:32:02.585Z,58.60
2023-03-10T16:34:40.889Z,58.66
2023-03-10T16:37:11.764Z,58.48
2023-03-10T16:39:40.923Z,58.42
2023-03-10T16:42:09.403Z,58.48
2023-03-10T16:44:38.604Z,58.53
2023-03-10T16:47:06.985Z,58.66
2023-03-10T16:49:36.697Z,58.83
2023-03-10T16:52:10.803Z,58.88
2023-03-10T16:54:42.183Z,59.00
2023-03-10T16:57:12.488Z,58.98
2023-03-10T16:59:42.649Z,59.11
2023-03-10T17:02:15.655Z,59.19
2023-03-10T17:04:45.620Z,59.43
2023-03-10T17:07:14.424Z,59.65
2023-03-10T17:09:43.009Z,59.93
2023-03-10T17:12:12.812Z,60.21
2023-03-10T17:14:41.805Z,60.63
2023-03-10T17:17:10.295Z,61.03
2023-03-10T17:19:38.773Z,61.38
2023-03-10T17:22:07.063Z,61.63
2023-03-10T17:24:36.480Z,61.92
2023-03-10T17:27:07.625Z,62.16
2023-03-10T17:29:36.293Z,62.32
2023-03-10T17:32:07.361Z,62.50
2023-03-10T17:34:36.979Z,62.80
2023-03-10T17:37:05.555Z,62.98
2023-03-10T17:39:35.388Z,63.24
2023-03-10T17:42:04.668Z,63.30
2023-03-10T17:44:34.280Z,63.44
2023-03-10T17:47:03.164Z,63.61
2023-03-10T17:49:33.795Z,63.72
2023-03-10T17:52:02.372Z,63.81
2023-03-10T17:54:31.092Z,63.92
2023-03-10T17:56:59.851Z,64.07
2023-03-10T17:59:29.051Z,64.20
2023-03-10T18:01:57.423Z,64.34
2023-03-10T18:04:29.955Z,64.49
2023-03-10T18:07:03.698Z,64.50
2023-03-10T18:09:51.968Z,64.51
2023-03-10T18:12:24.468Z,64.55
2023-03-10T18:14:54.071Z,64.60
2023-03-10T18:17:22.762Z,64.69
2023-03-10T18:19:52.400Z,64.71
2023-03-10T18:22:22.093Z,64.62
2023-03-10T18:24:50.351Z,64.82
2023-03-10T18:27:18.733Z,64.74
2023-03-10T18:29:47.725Z,64.83
2023-03-10T18:32:19.008Z,64.83
2023-03-10T18:34:49.198Z,64.75
2023-03-10T18:37:17.611Z,64.75
2023-03-10T18:39:51.820Z,64.82
2023-03-10T18:42:22.068Z,64.66
2023-03-10T18:44:50.948Z,64.72
2023-03-10T18:47:19.859Z,64.78
2023-03-10T18:49:50.135Z,64.71
2023-03-10T18:52:18.515Z,64.77
2023-03-10T18:54:47.230Z,64.77
2023-03-10T18:57:16.088Z,64.82
2023-03-10T18:59:44.989Z,64.89
2023-03-10T19:02:17.572Z,64.95
2023-03-10T19:04:47.980Z,65.22
2023-03-10T19:07:17.806Z,65.30
2023-03-10T19:09:47.363Z,65.35
2023-03-10T19:12:16.409Z,65.40
2023-03-10T19:14:46.332Z,65.52
2023-03-10T19:17:14.707Z,65.63
2023-03-10T19:19:46.772Z,65.74
2023-03-10T19:22:15.154Z,65.75
2023-03-10T19:24:43.841Z,65.88
2023-03-10T19:27:13.149Z,65.92
2023-03-10T19:29:53.293Z,66.01
2023-03-10T19:32:26.353Z,66.07
2023-03-10T19:34:57.134Z,66.18
2023-03-10T19:37:30.511Z,66.15
2023-03-10T19:39:59.526Z,66.38
2023-03-10T19:42:28.010Z,66.41
2023-03-10T19:44:56.698Z,66.50
2023-03-10T19:47:25.181Z,66.49
2023-03-10T19:50:00.533Z,66.63
2023-03-10T19:52:29.429Z,66.84
2023-03-10T19:54:57.839Z,66.79
2023-03-10T19:57:26.287Z,66.87
2023-03-10T19:59:55.586Z,66.99
2023-03-10T20:02:24.991Z,67.17
2023-03-10T20:04:53.274Z,67.14
2023-03-10T20:07:21.766Z,67.22
2023-03-10T20:09:50.771Z,67.36
2023-03-10T20:12:19.440Z,67.41
2023-03-10T20:14:47.946Z,67.34
2023-03-10T20:17:18.771Z,67.34
2023-03-10T20:19:48.778Z,67.32
2023-03-10T20:22:19.428Z,67.39
2023-03-10T20:24:50.352Z,67.29
2023-03-10T20:27:23.348Z,67.46
2023-03-10T20:29:56.738Z,67.53
2023-03-10T20:32:28.001Z,67.36
2023-03-10T20:34:56.470Z,67.39
2023-03-10T20:37:24.661Z,67.47
2023-03-10T20:39:54.233Z,67.43
2023-03-10T20:42:22.535Z,67.55
2023-03-10T20:44:50.918Z,67.47
2023-03-10T20:47:19.195Z,67.52
2023-03-10T20:49:47.779Z,67.58
2023-03-10T20:52:16.675Z,67.57
2023-03-10T20:54:45.776Z,67.59
2023-03-10T20:57:14.159Z,67.72
2023-03-10T20:59:46.842Z,67.85
2023-03-10T21:02:16.447Z,67.94
2023-03-10T21:04:45.119Z,67.97
2023-03-10T21:07:13.512Z,68.01
2023-03-10T21:09:42.604Z,68.09
2023-03-10T21:12:12.530Z,68.26
2023-03-10T21:14:47.562Z,68.39
2023-03-10T21:17:15.944Z,68.47
2023-03-10T21:19:44.237Z,68.56
2023-03-10T21:22:13.656Z,68.58
2023-03-10T21:24:41.926Z,68.75
2023-03-10T21:27:10.397Z,68.71
2023-03-10T21:29:40.231Z,68.89
2023-03-10T21:32:09.075Z,68.90
2023-03-10T21:34:37.419Z,68.96
2023-03-10T21:37:05.730Z,69.02
2023-03-10T21:39:36.088Z,69.02
2023-03-10T21:42:06.734Z,69.10
2023-03-10T21:44:35.554Z,69.08
2023-03-10T21:47:04.004Z,69.12
2023-03-10T21:49:37.418Z,69.10
2023-03-10T21:52:06.832Z,68.99
2023-03-10T21:54:35.101Z,68.88
2023-03-10T21:57:03.484Z,68.78
2023-03-10T21:59:32.181Z,68.63
2023-03-10T22:02:00.993Z,68.49
2023-03-10T22:04:30.468Z,68.40
2023-03-10T22:07:05.643Z,68.32
2023-03-10T22:09:49.239Z,68.21
2023-03-10T22:12:19.125Z,68.08
2023-03-10T22:14:50.601Z,68.02
2023-03-10T22:17:23.023Z,67.93
2023-03-10T22:20:00.116Z,67.84
2023-03-10T22:22:30.239Z,67.75
2023-03-10T22:25:09.381Z,67.76
2023-03-10T22:27:46.261Z,67.63
2023-03-10T22:30:22.944Z,67.50
2023-03-10T22:33:12.755Z,67.51
2023-03-10T22:36:19.484Z,67.50
2023-03-10T22:39:22.748Z,67.52
2023-03-10T22:50:04.692Z,67.33
2023-03-10T22:52:33.779Z,67.10
2023-03-10T22:55:02.290Z,67.07
2023-03-10T22:57:30.676Z,66.97
2023-03-10T22:59:59.030Z,67.00
2023-03-10T23:02:27.686Z,66.95
2023-03-10T23:04:56.103Z,66.80
2023-03-10T23:07:25.158Z,66.58
2023-03-10T23:09:53.478Z,66.45
2023-03-10T23:12:22.063Z,66.42
2023-03-10T23:14:51.061Z,66.39
2023-03-10T23:17:20.262Z,66.38
2023-03-10T23:19:51.509Z,66.39
2023-03-10T23:22:20.608Z,66.47
2023-03-10T23:24:50.024Z,66.59
2023-03-10T23:27:18.926Z,66.67
2023-03-10T23:29:47.259Z,66.79
2023-03-10T23:32:15.738Z,66.91
2023-03-10T23:34:44.522Z,66.94
2023-03-10T23:37:12.845Z,67.13
2023-03-10T23:39:42.249Z,67.27
2023-03-10T23:42:12.203Z,67.26
2023-03-10T23:44:40.744Z,67.26
2023-03-10T23:47:09.352Z,67.25
2023-03-10T23:49:37.669Z,67.24
2023-03-10T23:52:06.200Z,67.25
2023-03-10T23:54:35.497Z,67.20
2023-03-10T23:57:04.952Z,67.22
2023-03-10T23:59:36.156Z,67.31
